Whiteman Air Force Base, MO

10:24 PM CDT on August 20, 2019 (GMT -0500)
Whiteman Air Force Base | | Change Station

Elev 869 ft 38.73 °N, 93.55 °W | Updated 28 minutes ago

Mostly Cloudy
Mostly Cloudy
80 °F
Feels Like 80 °F
N
0
Wind Variable Wind from North

Today
High -- | Low -- °F
--% Chance of Precip.
Yesterday
High -- | Low -- °F
Precip. -- in
Pressure 29.94 in
Visibility 10.0 miles
Clouds Mostly Cloudy 10000 ft
Dew Point 79 °F
Humidity 99%
Rainfall 0.00 in
Snow Depth Not available.
6:32 AM 8:02 PM
Waning Gibbous, 74% visible
METAR KSZL 210256Z 00000KT 10SM BKN100 27/26 A2995 RMK AO2A SLP136 T02650263 52026 FZRANO $
Pressure 29.94 in
Visibility 10.0 miles
Clouds Mostly Cloudy 10000 ft
Dew Point 79 °F
Humidity 99%
Rainfall 0.00 in
Snow Depth Not available.
6:32 AM 8:02 PM
Waning Gibbous, 74% visible
METAR KSZL 210256Z 00000KT 10SM BKN100 27/26 A2995 RMK AO2A SLP136 T02650263 52026 FZRANO $

Get Severe Weather Alerts

Thanks for signing up!

Be on the lookout for a verification email in your inbox.

You'll start receiving the daily forecast at 6 AM.

×

10-Day Weather Forecast

Almanac

Astronomy

Aug. 20, 2019 Rise Set
Actual Time
Civil Twilight
Nautical Twilight
Astronomical Twilight
Moon
Length of Visible Light
Length of Day
Tomorrow will be .
, % of the Moon is Illuminated

Today's Extremes

State Highs State Lows

Community

WunderPhotos

Category 6

Welcome to Category 6. This is the collective home for Weather Underground's featured writeups by Dr. Jeff Masters (right), Bob Henson (left), Chris Burt, and other regular contributors.

Nearby

Air Quality

  Air Quality AQ Index Pollutant
Not available.

Snow Depth

Station Depth Elevation

Earthquake Activity

City Distance Mag. Time & Date
Minimum magnitude displayed is 2.5.

Coastal Water Temperatures

Place Temperature

Stations

Nearby Weather Stations

Station Location Temp. Windchill Dew Point Humidity Wind Precip. Elev Updated Type
                   

Watches & Warnings

There are currently no watches in effect.